Time;durP1;ratioP1;P1;durP2;ratioP2;P2;SDS_P1;SDS_P2;PMS_P1;PMS_P2;Temp;Humidity;BMP_temperature;BMP_pressure;BME280_temperature;BME280_humidity;BME280_pressure;Samples;Min_cycle;Max_cycle;Signal;HPM_P1;HPM_P2
2022/05/10 00:00:29;;;;;;;11.87;9.73;;;;;;;15.77;74.32;97280.69;4964147;28;20646;-72
2022/05/10 00:02:58;;;;;;;11.60;9.57;;;;;;;15.61;74.79;97284.19;4974624;28;20215;-72
2022/05/10 00:05:32;;;;;;;13.43;9.97;;;;;;;15.56;75.00;97278.84;4955964;28;20244;-72
2022/05/10 00:07:58;;;;;;;10.43;9.33;;;;;;;15.72;73.99;97277.97;4957220;28;20263;-73
2022/05/10 00:10:24;;;;;;;13.77;10.20;;;;;;;15.79;73.58;97278.59;4974517;28;20188;-72
2022/05/10 00:12:49;;;;;;;10.70;9.63;;;;;;;15.66;73.99;97275.56;4974669;28;20181;-72
2022/05/10 00:15:15;;;;;;;10.40;9.40;;;;;;;15.61;74.35;97273.63;4962014;28;20229;-72
2022/05/10 00:17:41;;;;;;;10.10;9.00;;;;;;;15.54;74.46;97274.88;4955724;28;20194;-72
2022/05/10 00:20:11;;;;;;;9.23;8.33;;;;;;;15.63;74.19;97273.38;4974489;28;20184;-72
2022/05/10 00:22:37;;;;;;;9.03;8.23;;;;;;;15.73;73.64;97273.50;4966379;28;20255;-72
2022/05/10 00:25:04;;;;;;;9.23;8.33;;;;;;;15.65;73.78;97277.41;4958059;28;20204;-73
2022/05/10 00:27:29;;;;;;;12.40;9.33;;;;;;;15.65;74.00;97273.94;4958035;28;20669;-73
2022/05/10 00:29:54;;;;;;;13.23;9.63;;;;;;;15.51;74.60;97267.38;4960410;28;20288;-72
2022/05/10 00:32:21;;;;;;;9.87;8.87;;;;;;;15.51;74.88;97270.03;4970073;28;20199;-72
2022/05/10 00:34:47;;;;;;;12.83;9.13;;;;;;;15.48;75.15;97273.19;4974560;28;20184;-72
2022/05/10 00:37:14;;;;;;;12.00;9.37;;;;;;;15.49;75.17;97269.50;4974226;28;20199;-72
2022/05/10 00:39:40;;;;;;;10.03;9.17;;;;;;;15.55;75.19;97268.53;4955205;28;20685;-73
2022/05/10 00:42:12;;;;;;;10.43;9.43;;;;;;;15.46;75.39;97270.78;4960916;28;20295;-72
2022/05/10 00:44:43;;;;;;;12.57;9.73;;;;;;;15.62;74.82;97269.94;4966601;28;20622;-72
2022/05/10 00:47:20;;;;;;;10.60;9.50;;;;;;;15.60;75.10;97271.25;4955019;28;20192;-73
2022/05/10 00:50:01;;;;;;;10.70;9.60;;;;;;;15.56;74.96;97268.28;4955550;28;20193;-72
2022/05/10 00:52:38;;;;;;;9.13;8.27;;;;;;;15.65;74.53;97266.03;4973703;28;20188;-73
2022/05/10 00:55:15;;;;;;;10.03;8.47;;;;;;;15.58;74.74;97262.75;4973354;28;20200;-72
2022/05/10 00:57:46;;;;;;;9.80;8.80;;;;;;;15.61;74.73;97255.13;4973550;28;20171;-72
2022/05/10 01:00:19;;;;;;;10.30;9.40;;;;;;;15.72;74.44;97256.03;4969896;28;20561;-72
2022/05/10 01:02:50;;;;;;;10.43;9.43;;;;;;;15.55;75.02;97263.25;4953631;29;20192;-73
2022/05/10 01:05:28;;;;;;;10.03;9.03;;;;;;;15.36;76.01;97257.44;4967133;28;20177;-73
2022/05/10 01:07:53;;;;;;;10.90;9.10;;;;;;;15.24;76.72;97265.47;4973308;28;20192;-72
2022/05/10 01:10:28;;;;;;;9.97;9.03;;;;;;;15.39;76.32;97255.09;4961518;28;20185;-72
2022/05/10 01:13:05;;;;;;;10.73;9.10;;;;;;;15.55;75.33;97250.81;4938211;28;20189;-73
2022/05/10 01:15:32;;;;;;;10.73;9.30;;;;;;;15.43;75.80;97250.16;4972089;28;20291;-73
2022/05/10 01:17:58;;;;;;;11.10;10.00;;;;;;;15.27;76.89;97246.50;4964553;28;20221;-73
2022/05/10 01:20:44;;;;;;;11.93;9.83;;;;;;;15.42;76.41;97245.09;4967251;28;20219;-72
2022/05/10 01:23:40;;;;;;;10.77;9.73;;;;;;;15.26;76.99;97238.84;4973244;28;20243;-72
2022/05/10 01:26:35;;;;;;;12.60;10.33;;;;;;;15.40;76.47;97240.06;4972241;28;20645;-72
2022/05/10 01:29:07;;;;;;;12.37;9.97;;;;;;;15.39;76.12;97230.53;4971517;28;20622;-73
2022/05/10 01:31:40;;;;;;;10.80;9.70;;;;;;;15.31;76.79;97229.13;4953930;28;20256;-72
2022/05/10 01:34:12;;;;;;;12.80;9.40;;;;;;;15.27;77.01;97237.75;4966051;28;20634;-73
2022/05/10 01:36:47;;;;;;;14.27;10.13;;;;;;;15.31;76.82;97230.97;4973332;28;20646;-73
2022/05/10 01:39:30;;;;;;;12.83;10.10;;;;;;;15.29;77.05;97225.91;4954600;28;20169;-73
2022/05/10 01:42:18;;;;;;;15.97;10.77;;;;;;;15.34;76.99;97233.09;4964192;28;20262;-73
2022/05/10 01:45:24;;;;;;;12.97;11.57;;;;;;;15.26;77.19;97225.63;4958355;28;20193;-73
2022/05/10 01:47:56;;;;;;;13.10;11.17;;;;;;;15.17;77.79;97222.59;4959304;28;20181;-73
2022/05/10 01:50:32;;;;;;;12.80;11.50;;;;;;;15.14;78.19;97214.38;4973213;28;20264;-73
2022/05/10 01:53:01;;;;;;;12.97;11.40;;;;;;;14.94;79.19;97220.97;4957399;28;20188;-73
2022/05/10 01:55:35;;;;;;;13.40;11.30;;;;;;;15.05;78.92;97210.53;4956090;28;20184;-73
2022/05/10 01:58:12;;;;;;;14.30;11.00;;;;;;;14.94;79.05;97197.22;4972690;28;20274;-73
2022/05/10 02:00:39;;;;;;;14.37;10.73;;;;;;;14.88;79.79;97203.47;4973310;28;20300;-73
2022/05/10 02:03:20;;;;;;;12.57;11.27;;;;;;;14.94;79.66;97196.41;4972354;28;20219;-73
2022/05/10 02:05:57;;;;;;;13.80;12.30;;;;;;;14.99;79.00;97197.28;4954492;28;20185;-72
2022/05/10 02:08:47;;;;;;;13.00;11.40;;;;;;;15.02;78.91;97200.47;4968745;28;20213;-72
2022/05/10 02:18:25;;;;;;;14.90;11.70;;;;;;;14.80;79.80;97211.00;5144961;23;20250;-73
2022/05/10 02:21:18;;;;;;;12.10;10.77;;;;;;;14.73;80.49;97210.38;5012686;28;20273;-74
2022/05/10 02:23:56;;;;;;;12.07;10.87;;;;;;;14.65;80.87;97206.31;4998587;28;20179;-74
2022/05/10 02:26:33;;;;;;;14.33;12.83;;;;;;;14.77;80.51;97211.47;5016437;28;20600;-73
2022/05/10 02:29:08;;;;;;;13.37;12.03;;;;;;;14.86;80.17;97207.41;5015820;28;20233;-73
2022/05/10 02:34:35;;;;;;;13.27;11.77;;;;;;;14.47;82.29;97204.72;5015077;28;20175;-73
2022/05/10 02:37:00;;;;;;;14.20;12.70;;;;;;;14.73;81.38;97205.91;5015392;28;20218;-74
2022/05/10 02:39:26;;;;;;;15.67;12.37;;;;;;;14.62;81.56;97209.44;5015541;28;20215;-73
2022/05/10 02:41:52;;;;;;;13.93;11.63;;;;;;;14.53;82.05;97203.78;5015289;28;20680;-75
2022/05/10 02:44:18;;;;;;;14.00;12.57;;;;;;;14.54;82.18;97204.56;4999396;28;20753;-74
2022/05/10 02:46:43;;;;;;;16.43;13.43;;;;;;;14.62;82.00;97203.34;5015527;28;20207;-74
2022/05/10 02:49:08;;;;;;;16.23;12.73;;;;;;;14.36;83.40;97200.31;5015185;28;20258;-73
2022/05/10 02:51:34;;;;;;;15.07;13.23;;;;;;;14.39;83.21;97199.03;5015265;28;20203;-74
2022/05/10 02:53:59;;;;;;;15.10;12.53;;;;;;;14.30;83.94;97192.56;4997934;28;20214;-73
2022/05/10 02:56:26;;;;;;;16.67;13.20;;;;;;;14.37;83.87;97198.50;5015115;28;20308;-74
2022/05/10 02:59:13;;;;;;;15.47;12.67;;;;;;;14.31;84.04;97199.44;5015156;28;20184;-75
2022/05/10 03:01:57;;;;;;;14.40;13.00;;;;;;;14.41;83.70;97196.97;5015367;28;20207;-73
2022/05/10 03:04:31;;;;;;;14.10;12.57;;;;;;;14.35;84.23;97195.25;5014693;28;20266;-73
2022/05/10 03:06:57;;;;;;;15.27;13.57;;;;;;;14.26;84.73;97194.06;5015173;28;20168;-73
2022/05/10 03:09:22;;;;;;;16.33;13.20;;;;;;;14.24;85.25;97189.03;4997104;28;20549;-74
2022/05/10 03:11:48;;;;;;;17.87;13.80;;;;;;;14.16;85.53;97192.06;5014559;28;20198;-74
2022/05/10 03:14:13;;;;;;;16.27;14.27;;;;;;;14.16;85.76;97192.84;5014802;28;20266;-74
2022/05/10 03:16:39;;;;;;;15.67;14.07;;;;;;;14.07;86.13;97190.84;5011522;28;20195;-75
2022/05/10 03:19:04;;;;;;;16.43;14.27;;;;;;;13.87;86.87;97190.53;5011494;28;20223;-73
2022/05/10 03:21:30;;;;;;;15.50;13.67;;;;;;;13.89;87.08;97188.44;5014678;28;20262;-75
2022/05/10 03:23:55;;;;;;;14.70;13.10;;;;;;;13.92;86.72;97183.50;5014769;28;20541;-75
2022/05/10 03:26:27;;;;;;;14.50;12.90;;;;;;;14.05;85.99;97192.91;5014802;28;20585;-74
2022/05/10 03:28:53;;;;;;;13.63;11.90;;;;;;;14.04;85.31;97186.84;5014181;28;20190;-74
2022/05/10 03:31:21;;;;;;;13.47;11.50;;;;;;;14.32;83.70;97183.34;5014322;28;20196;-74
2022/05/10 03:34:54;;;;;;;11.70;10.50;;;;;;;14.40;82.71;97182.19;5013849;28;20191;-74
2022/05/10 03:36:33;;;;;;;12.50;10.73;;;;;;;14.49;82.00;97183.38;5014220;28;20597;-74
2022/05/10 03:38:59;;;;;;;13.40;10.67;;;;;;;14.61;81.51;97181.44;5014364;28;20191;-74
2022/05/10 03:41:24;;;;;;;12.40;10.57;;;;;;;14.62;81.00;97188.31;5014231;28;20290;-74
2022/05/10 03:43:49;;;;;;;16.20;10.70;;;;;;;14.72;80.37;97179.75;5014433;28;20179;-74
2022/05/10 03:46:15;;;;;;;11.63;10.43;;;;;;;14.79;79.85;97178.53;5014615;28;20214;-74
2022/05/10 03:48:40;;;;;;;11.60;10.40;;;;;;;14.76;80.21;97191.44;4996550;28;20559;-74
2022/05/10 03:51:05;;;;;;;10.63;9.60;;;;;;;14.79;79.55;97180.38;5014022;28;20183;-74
2022/05/10 03:53:31;;;;;;;10.57;9.53;;;;;;;14.77;79.44;97190.38;5013508;28;20191;-73
2022/05/10 03:55:56;;;;;;;12.00;10.23;;;;;;;14.87;79.92;97178.13;5014324;28;20686;-73
2022/05/10 03:58:21;;;;;;;10.77;9.77;;;;;;;14.80;79.55;97171.41;5013991;28;20636;-73
2022/05/10 04:00:47;;;;;;;11.00;9.63;;;;;;;14.81;79.41;97176.47;4996442;28;20260;-73
2022/05/10 04:03:12;;;;;;;12.80;9.97;;;;;;;14.77;79.76;97175.34;5013874;28;20233;-73
2022/05/10 04:05:37;;;;;;;12.17;10.03;;;;;;;14.96;78.63;97178.50;5013875;28;20649;-74
2022/05/10 04:08:04;;;;;;;12.43;10.53;;;;;;;15.04;78.15;97172.81;5013793;28;20270;-73
2022/05/10 04:10:29;;;;;;;10.70;9.70;;;;;;;15.04;78.22;97186.00;5014014;28;20609;-73
2022/05/10 04:12:55;;;;;;;11.30;10.20;;;;;;;15.10;77.83;97187.63;5013632;28;20215;-73
2022/05/10 04:15:20;;;;;;;10.70;9.60;;;;;;;15.14;77.46;97182.69;5013378;28;20238;-73
2022/05/10 04:17:46;;;;;;;11.67;10.47;;;;;;;15.09;77.60;97183.44;5006289;28;20231;-74
2022/05/10 04:20:14;;;;;;;12.40;11.20;;;;;;;15.15;77.76;97184.28;5013598;28;20183;-74
2022/05/10 04:22:39;;;;;;;11.87;10.63;;;;;;;15.12;77.82;97177.66;5013618;28;20206;-75
2022/05/10 04:25:05;;;;;;;12.63;10.77;;;;;;;15.11;78.42;97180.53;4997758;28;20559;-74
2022/05/10 04:27:32;;;;;;;12.77;10.93;;;;;;;15.03;78.98;97173.03;5013216;28;20195;-74
2022/05/10 04:29:57;;;;;;;13.97;10.10;;;;;;;15.23;77.64;97176.72;4994979;28;20179;-74
2022/05/10 04:32:23;;;;;;;11.73;10.63;;;;;;;15.19;77.50;97180.09;5013444;28;20613;-74
2022/05/10 04:34:48;;;;;;;17.17;10.73;;;;;;;15.18;77.90;97178.50;5013303;28;20187;-74
2022/05/10 04:37:13;;;;;;;12.40;11.00;;;;;;;15.51;76.49;97188.13;5013288;28;20626;-74
2022/05/10 04:42:23;;;;;;;11.17;10.07;;;;;;;15.51;75.80;97182.84;5001499;28;20588;-74
2022/05/10 04:44:48;;;;;;;11.20;10.00;;;;;;;15.52;75.35;97176.56;5012828;28;20191;-75
2022/05/10 04:47:13;;;;;;;10.70;9.63;;;;;;;15.93;74.16;97178.56;5013045;28;20214;-74
2022/05/10 04:49:39;;;;;;;10.93;9.93;;;;;;;16.15;73.28;97183.78;5012679;28;20250;-74
2022/05/10 04:52:04;;;;;;;12.83;9.30;;;;;;;16.26;72.19;97185.47;5013183;28;20270;-73
2022/05/10 04:54:30;;;;;;;10.77;9.60;;;;;;;16.42;71.54;97181.06;5012868;28;20176;-74
2022/05/10 04:56:55;;;;;;;9.70;8.77;;;;;;;16.71;70.22;97190.31;5012960;28;20187;-72
2022/05/10 04:59:21;;;;;;;10.03;9.00;;;;;;;17.19;68.68;97188.44;5012600;28;20510;-73
2022/05/10 05:01:46;;;;;;;11.37;9.43;;;;;;;17.50;67.88;97189.38;5012242;28;20207;-74
2022/05/10 05:04:12;;;;;;;9.90;8.90;;;;;;;17.44;67.51;97193.84;5012637;28;20571;-73
2022/05/10 05:06:39;;;;;;;11.57;8.60;;;;;;;17.70;66.62;97190.25;4994843;28;20211;-73
2022/05/10 05:09:05;;;;;;;12.37;9.43;;;;;;;17.64;66.58;97190.47;5012345;28;20294;-72
2022/05/10 05:11:31;;;;;;;9.87;8.30;;;;;;;18.03;65.14;97191.63;5012387;28;20215;-70
2022/05/10 05:13:56;;;;;;;11.88;8.70;;;;;;;17.92;65.95;97190.00;5012643;28;20302;-73
2022/05/10 05:16:21;;;;;;;9.82;8.43;;;;;;;17.65;66.39;97192.09;4986753;28;20218;-73
2022/05/10 05:18:47;;;;;;;9.55;8.18;;;;;;;17.69;66.68;97193.94;5009230;28;20310;-74
2022/05/10 05:21:13;;;;;;;9.25;8.30;;;;;;;18.14;65.23;97198.53;5012116;28;20195;-74
2022/05/10 05:23:38;;;;;;;8.80;7.90;;;;;;;18.16;65.23;97195.63;5011779;28;20203;-74
2022/05/10 05:26:04;;;;;;;9.35;8.18;;;;;;;18.50;64.20;97193.22;5012793;28;20191;-73
2022/05/10 05:28:29;;;;;;;9.50;8.52;;;;;;;18.89;63.26;97199.56;5012365;28;20262;-74
2022/05/10 05:30:55;;;;;;;12.85;8.43;;;;;;;19.15;62.47;97199.50;5012564;28;20186;-73
2022/05/10 05:33:20;;;;;;;9.73;8.73;;;;;;;19.18;62.48;97204.25;5011950;28;20281;-73
2022/05/10 05:35:46;;;;;;;10.52;8.23;;;;;;;19.10;62.12;97201.13;5012550;28;20755;-74
2022/05/10 05:38:11;;;;;;;9.55;8.60;;;;;;;19.06;62.30;97201.91;5012354;28;20218;-73
2022/05/10 05:40:38;;;;;;;11.13;8.80;;;;;;;19.34;61.89;97201.28;5014757;28;20183;-73
2022/05/10 05:43:04;;;;;;;11.50;8.98;;;;;;;19.30;62.01;97199.44;5016250;28;20199;-72
2022/05/10 05:45:29;;;;;;;9.85;8.85;;;;;;;19.61;61.39;97200.94;5016651;28;20215;-72
2022/05/10 05:47:55;;;;;;;10.40;9.30;;;;;;;19.29;62.21;97201.28;5016235;28;20702;-73
2022/05/10 05:50:23;;;;;;;19.50;10.18;;;;;;;19.49;61.59;97197.81;5015954;28;20306;-73
2022/05/10 05:52:49;;;;;;;10.45;9.35;;;;;;;20.04;60.33;97195.91;5016267;28;20195;-73
2022/05/10 05:55:17;;;;;;;10.57;8.98;;;;;;;19.72;60.45;97207.81;5016283;28;20198;-72
2022/05/10 05:57:43;;;;;;;12.70;9.23;;;;;;;20.10;59.60;97197.44;5016330;28;20195;-75
2022/05/10 06:00:11;;;;;;;14.02;9.20;;;;;;;20.09;59.67;97198.53;5016249;28;20191;-73
2022/05/10 06:02:37;;;;;;;10.52;9.43;;;;;;;20.14;59.65;97201.94;5015680;28;20648;-72
2022/05/10 06:05:03;;;;;;;12.70;8.65;;;;;;;20.19;59.03;97209.09;5015834;28;20259;-73
2022/05/10 06:07:29;;;;;;;9.95;8.13;;;;;;;20.19;58.43;97204.56;5016107;28;20702;-74
2022/05/10 06:09:54;;;;;;;11.45;7.85;;;;;;;20.12;57.69;97206.72;5015595;28;20187;-73
2022/05/10 06:12:20;;;;;;;8.68;7.78;;;;;;;20.08;57.66;97207.56;5016051;28;20191;-73
2022/05/10 06:14:46;;;;;;;8.95;7.30;;;;;;;19.86;57.88;97207.97;5015523;28;20214;-74
2022/05/10 06:17:13;;;;;;;8.15;6.45;;;;;;;19.55;58.68;97212.69;5012373;28;20235;-74
2022/05/10 06:19:42;;;;;;;7.88;7.07;;;;;;;19.63;59.79;97209.44;5015385;28;20254;-73
2022/05/10 06:22:10;;;;;;;8.05;7.10;;;;;;;19.65;59.35;97211.81;5016142;28;20646;-72
2022/05/10 06:24:36;;;;;;;11.15;7.93;;;;;;;19.77;59.35;97221.06;5015985;28;20219;-72
2022/05/10 06:27:03;;;;;;;8.52;7.55;;;;;;;19.89;59.47;97212.75;5016259;28;20215;-71
2022/05/10 06:29:28;;;;;;;10.90;7.60;;;;;;;19.98;59.25;97213.75;5015194;28;20192;-73
2022/05/10 06:31:54;;;;;;;8.27;7.30;;;;;;;20.52;58.07;97221.63;5015217;28;20493;-72
2022/05/10 06:34:19;;;;;;;14.68;7.15;;;;;;;20.40;58.18;97213.22;5015464;28;20194;-72
2022/05/10 06:36:45;;;;;;;8.50;7.00;;;;;;;20.43;58.04;97215.34;5015640;28;20210;-71
2022/05/10 06:39:10;;;;;;;8.85;7.30;;;;;;;20.40;58.36;97217.75;5015880;28;20185;-72
2022/05/10 06:41:36;;;;;;;8.07;7.10;;;;;;;20.46;59.16;97214.75;5015650;28;20194;-72
2022/05/10 06:44:03;;;;;;;10.77;7.53;;;;;;;20.44;58.36;97216.13;5015530;28;20651;-71
2022/05/10 06:46:32;;;;;;;8.18;7.38;;;;;;;20.81;57.33;97212.88;5015577;28;20269;-73
2022/05/10 06:48:58;;;;;;;7.25;6.60;;;;;;;21.09;56.88;97209.38;5015238;28;20648;-72
2022/05/10 06:51:24;;;;;;;7.80;7.10;;;;;;;21.24;56.17;97217.22;5015046;28;20201;-72
2022/05/10 06:53:50;;;;;;;8.00;6.97;;;;;;;21.41;56.27;97212.22;5015189;28;20226;-71
2022/05/10 06:56:16;;;;;;;12.68;8.52;;;;;;;21.35;55.64;97210.69;5015402;28;20266;-72
2022/05/10 06:58:42;;;;;;;13.40;8.05;;;;;;;21.15;56.48;97210.94;5014975;28;20278;-72
2022/05/10 07:01:12;;;;;;;9.25;7.80;;;;;;;21.14;56.28;97212.00;5014748;28;20745;-72
2022/05/10 07:03:39;;;;;;;14.35;7.22;;;;;;;21.31;56.82;97207.03;5014654;28;20692;-72
2022/05/10 07:06:07;;;;;;;10.25;7.35;;;;;;;21.53;55.83;97207.28;5015484;28;20179;-71
2022/05/10 07:08:33;;;;;;;8.85;7.28;;;;;;;21.56;55.25;97204.06;5014852;28;20187;-73
2022/05/10 07:10:58;;;;;;;8.68;7.38;;;;;;;21.51;55.76;97204.09;5014867;28;20199;-74
2022/05/10 07:13:26;;;;;;;8.23;7.43;;;;;;;21.74;55.44;97204.34;5014428;28;20195;-73
2022/05/10 07:15:52;;;;;;;29.30;7.90;;;;;;;21.89;55.11;97206.81;5010367;28;20212;-73
2022/05/10 07:18:18;;;;;;;8.07;7.18;;;;;;;21.93;55.15;97203.28;5014264;28;20306;-73
2022/05/10 07:20:45;;;;;;;10.05;7.22;;;;;;;21.90;53.88;97198.50;5014844;28;20584;-76
2022/05/10 07:23:11;;;;;;;7.72;6.93;;;;;;;22.32;53.16;97203.00;5014715;28;20235;-75
2022/05/10 07:25:36;;;;;;;8.35;7.55;;;;;;;22.25;54.30;97209.78;5014720;28;20215;-75
2022/05/10 07:28:02;;;;;;;8.93;7.32;;;;;;;22.57;53.56;97209.03;5015092;28;20183;-77
2022/05/10 07:30:29;;;;;;;8.50;7.40;;;;;;;22.27;54.28;97208.41;5014751;28;20230;-76
2022/05/10 07:32:54;;;;;;;12.52;7.30;;;;;;;22.51;53.65;97210.19;5014699;28;20179;-75
2022/05/10 07:36:23;;;;;;;9.38;7.38;;;;;;;22.43;53.32;97214.31;5014444;28;20272;-75
2022/05/10 07:38:09;;;;;;;8.13;7.00;;;;;;;22.52;53.13;97220.56;5014178;28;20689;-76
2022/05/10 07:40:34;;;;;;;10.00;6.90;;;;;;;22.16;54.09;97215.00;5014434;28;20216;-75
2022/05/10 07:43:00;;;;;;;7.30;6.70;;;;;;;22.24;53.14;97216.19;5014912;28;20230;-76
2022/05/10 07:45:25;;;;;;;9.32;6.85;;;;;;;22.47;53.03;97217.97;5014755;28;20187;-76
2022/05/10 07:47:51;;;;;;;7.65;6.82;;;;;;;22.54;52.46;97220.28;5015174;28;20180;-76
2022/05/10 07:50:17;;;;;;;9.57;7.05;;;;;;;22.80;51.45;97216.13;5026068;28;20270;-76
2022/05/10 07:52:43;;;;;;;24.73;7.57;;;;;;;22.75;51.39;97214.31;5015647;28;20192;-76
2022/05/10 07:55:09;;;;;;;7.53;6.93;;;;;;;23.01;50.66;97208.53;5014435;28;20636;-76
2022/05/10 07:57:35;;;;;;;7.57;6.80;;;;;;;22.84;50.73;97219.81;5015395;28;20191;-77
2022/05/10 08:00:00;;;;;;;31.88;7.50;;;;;;;22.83;50.04;97220.88;5017895;28;20260;-77
2022/05/10 08:02:26;;;;;;;8.32;6.90;;;;;;;23.10;49.64;97212.91;5003359;28;20195;-77
2022/05/10 08:04:51;;;;;;;6.07;5.57;;;;;;;23.06;49.46;97211.13;5013837;28;20647;-77
2022/05/10 08:07:16;;;;;;;10.93;6.03;;;;;;;23.27;50.03;97209.63;5014464;28;20515;-77
2022/05/10 08:09:42;;;;;;;7.28;5.55;;;;;;;23.25;49.74;97209.13;5014010;28;20211;-77
2022/05/10 08:12:08;;;;;;;6.68;6.00;;;;;;;23.44;49.52;97207.16;5014060;28;20954;-77
2022/05/10 08:14:33;;;;;;;8.13;5.70;;;;;;;23.12;49.79;97207.25;5009206;28;20195;-76
2022/05/10 08:16:59;;;;;;;7.40;6.68;;;;;;;23.16;49.78;97213.59;5013500;28;20258;-77
2022/05/10 08:19:24;;;;;;;12.18;6.07;;;;;;;23.20;50.03;97203.88;5013606;28;20210;-77
2022/05/10 08:21:49;;;;;;;7.80;6.05;;;;;;;23.41;49.83;97207.72;5013979;28;20196;-76
2022/05/10 08:24:15;;;;;;;8.00;6.30;;;;;;;23.35;49.30;97203.56;5013930;28;20236;-76
2022/05/10 08:26:40;;;;;;;7.07;6.00;;;;;;;23.26;50.13;97208.03;5013803;28;20195;-77
2022/05/10 08:29:06;;;;;;;7.03;6.00;;;;;;;22.93;50.45;97209.22;5014213;28;20194;-77
2022/05/10 08:31:31;;;;;;;6.18;5.55;;;;;;;23.17;50.10;97204.50;5013836;28;20218;-77
2022/05/10 08:33:56;;;;;;;6.75;6.10;;;;;;;23.10;50.09;97206.75;5013598;28;20194;-76
2022/05/10 08:36:22;;;;;;;11.02;6.38;;;;;;;23.12;49.72;97201.91;5012927;28;20644;-76
2022/05/10 08:38:48;;;;;;;6.00;5.43;;;;;;;23.38;48.58;97205.66;5013837;28;20230;-76
2022/05/10 08:41:39;;;;;;;7.57;6.45;;;;;;;23.48;48.94;97202.03;5013507;28;20290;-76
2022/05/10 08:44:12;;;;;;;7.53;6.10;;;;;;;23.59;49.37;97193.47;4984513;28;20182;-75
2022/05/10 08:46:41;;;;;;;6.85;6.15;;;;;;;23.59;50.02;97192.69;5013137;28;20655;-76
2022/05/10 08:49:25;;;;;;;7.13;6.38;;;;;;;23.83;48.79;97193.25;5013173;28;20191;-76
2022/05/10 08:51:52;;;;;;;7.03;6.32;;;;;;;23.91;48.41;97199.75;5013060;28;20186;-76
2022/05/10 08:54:18;;;;;;;6.47;5.80;;;;;;;23.82;48.68;97194.34;5013366;28;20183;-75
2022/05/10 08:56:48;;;;;;;7.18;6.47;;;;;;;23.75;49.23;97188.59;5012623;28;20322;-76
2022/05/10 08:59:40;;;;;;;6.13;5.50;;;;;;;23.57;48.84;97190.31;5013433;28;20198;-76
2022/05/10 09:02:27;;;;;;;8.13;6.10;;;;;;;23.86;48.95;97195.31;5013431;28;20238;-76
2022/05/10 09:05:15;;;;;;;8.00;6.43;;;;;;;24.08;49.85;97191.88;5013247;28;20194;-75
2022/05/10 09:07:46;;;;;;;6.80;6.22;;;;;;;24.02;48.56;97193.88;5013596;28;20179;-75
2022/05/10 09:10:23;;;;;;;6.47;5.85;;;;;;;24.06;47.95;97193.28;5012537;28;20333;-76
2022/05/10 09:13:01;;;;;;;7.25;6.07;;;;;;;23.80;49.01;97190.34;5012818;28;20213;-76
2022/05/10 09:15:29;;;;;;;6.55;5.95;;;;;;;23.78;50.04;97193.34;4998076;28;20215;-76
2022/05/10 09:17:56;;;;;;;7.85;6.35;;;;;;;23.76;50.40;97192.06;5012417;28;20262;-75
2022/05/10 09:20:21;;;;;;;7.72;6.07;;;;;;;23.69;49.39;97187.13;5013045;28;20269;-76
2022/05/10 09:23:12;;;;;;;5.90;5.40;;;;;;;23.96;49.30;97187.03;5012671;28;20723;-76
2022/05/10 09:25:40;;;;;;;6.15;5.57;;;;;;;24.20;48.17;97192.16;5012881;28;20270;-75
2022/05/10 09:28:20;;;;;;;6.80;5.68;;;;;;;23.81;48.35;97187.38;5012915;28;20191;-76
2022/05/10 09:34:45;;;;;;;6.22;5.63;;;;;;;23.88;47.78;97186.97;5012609;28;20175;-75
2022/05/10 09:36:27;;;;;;;6.20;5.65;;;;;;;23.50;49.29;97179.22;5014528;28;20290;-76
2022/05/10 09:38:59;;;;;;;6.28;5.68;;;;;;;23.59;48.86;97184.66;5013057;28;20211;-75
2022/05/10 09:41:46;;;;;;;5.93;5.30;;;;;;;23.77;48.55;97183.75;5023020;28;20179;-75
2022/05/10 09:44:24;;;;;;;6.90;5.68;;;;;;;23.95;45.93;97173.97;5005160;28;20183;-75
2022/05/10 09:46:51;;;;;;;6.00;5.50;;;;;;;23.67;47.29;97175.94;5012583;28;20182;-76
2022/05/10 09:49:34;;;;;;;6.45;5.57;;;;;;;23.69;47.59;97170.25;5013106;28;20179;-76
2022/05/10 09:51:59;;;;;;;6.10;5.20;;;;;;;23.94;46.96;97169.69;4983932;28;20195;-76
2022/05/10 09:54:45;;;;;;;5.63;5.13;;;;;;;23.83;45.86;97166.47;5012925;28;20194;-76
2022/05/10 09:57:25;;;;;;;5.30;4.78;;;;;;;23.48;44.34;97167.22;5011703;28;20195;-76
2022/05/10 09:59:50;;;;;;;6.07;4.07;;;;;;;23.84;40.58;97165.38;5012799;28;20202;-75
2022/05/10 10:02:31;;;;;;;4.45;4.05;;;;;;;23.74;41.93;97170.94;5012697;28;20733;-76
2022/05/10 10:04:58;;;;;;;5.50;4.63;;;;;;;24.05;43.17;97168.38;5012373;28;20186;-74
2022/05/10 10:07:28;;;;;;;4.93;4.47;;;;;;;24.16;43.52;97166.25;5002724;28;20175;-75
2022/05/10 10:10:23;;;;;;;5.43;4.93;;;;;;;23.46;45.65;97153.38;5011411;28;20180;-74
2022/05/10 10:12:49;;;;;;;6.30;5.15;;;;;;;23.63;45.67;97150.06;5012281;28;20536;-73
2022/05/10 10:15:43;;;;;;;9.75;4.93;;;;;;;23.91;45.41;97157.69;4982083;28;20187;-73
2022/05/10 10:18:11;;;;;;;5.28;4.78;;;;;;;24.05;44.99;97149.63;5011241;28;20231;-75
2022/05/10 10:20:54;;;;;;;4.97;4.57;;;;;;;24.36;43.18;97147.03;5012215;28;20218;-76
2022/05/10 10:23:40;;;;;;;5.30;4.80;;;;;;;24.06;43.41;97145.06;5011865;28;20195;-75
2022/05/10 10:26:08;;;;;;;4.68;4.28;;;;;;;24.09;44.05;97150.59;4986384;28;20180;-73
2022/05/10 10:28:46;;;;;;;4.75;4.35;;;;;;;23.80;42.68;97145.63;5006051;28;20192;-73
2022/05/10 10:31:20;;;;;;;5.70;4.38;;;;;;;23.79;42.72;97144.06;5011649;28;20198;-73
2022/05/10 10:34:07;;;;;;;4.70;4.13;;;;;;;23.90;43.02;97139.28;5003514;28;20230;-74
2022/05/10 10:36:41;;;;;;;4.53;4.10;;;;;;;24.28;41.98;97147.78;5015288;28;20180;-74
2022/05/10 10:39:06;;;;;;;5.78;4.25;;;;;;;24.55;40.50;97133.41;5015808;28;20176;-74
2022/05/10 10:41:51;;;;;;;4.85;4.22;;;;;;;24.96;40.36;97141.22;5016155;28;20196;-73
2022/05/10 10:44:31;;;;;;;4.68;3.88;;;;;;;25.13;40.60;97135.91;5015626;28;20189;-74
2022/05/10 10:46:59;;;;;;;4.38;3.97;;;;;;;25.30;39.52;97132.47;5014930;28;20198;-74
2022/05/10 10:49:34;;;;;;;5.28;4.20;;;;;;;24.96;41.18;97128.59;5015683;28;20684;-74
2022/05/10 10:51:59;;;;;;;4.18;3.88;;;;;;;24.26;40.33;97125.84;5015630;28;20183;-74
2022/05/10 10:54:29;;;;;;;4.15;3.85;;;;;;;24.18;40.78;97122.03;5015009;28;20190;-74
2022/05/10 10:57:32;;;;;;;3.97;3.70;;;;;;;24.69;40.51;97121.50;5015164;28;20194;-74
2022/05/10 11:00:09;;;;;;;5.15;4.65;;;;;;;24.41;40.12;97117.41;5014983;28;20220;-73
2022/05/10 11:02:46;;;;;;;4.72;4.03;;;;;;;24.70;41.08;97117.72;5015050;28;20203;-74
2022/05/10 11:05:11;;;;;;;6.15;4.30;;;;;;;25.35;40.47;97110.84;5015135;28;20592;-74
2022/05/10 11:07:58;;;;;;;4.40;4.00;;;;;;;25.69;39.33;97108.22;5014945;28;20180;-74
2022/05/10 11:10:51;;;;;;;4.28;3.97;;;;;;;25.55;39.27;97105.66;5014781;28;20249;-74
2022/05/10 11:13:44;;;;;;;4.50;4.10;;;;;;;25.49;39.08;97100.75;4993337;28;20276;-74
2022/05/10 11:16:28;;;;;;;4.22;3.83;;;;;;;25.25;39.08;97095.81;5007181;28;20671;-76
2022/05/10 11:19:07;;;;;;;5.13;4.22;;;;;;;25.10;40.35;97093.59;5008775;28;20230;-74
2022/05/10 11:21:57;;;;;;;4.07;3.72;;;;;;;25.61;40.09;97092.91;4996949;28;20214;-74
2022/05/10 11:24:23;;;;;;;6.57;4.20;;;;;;;25.52;38.38;97089.41;5013782;28;20191;-75
2022/05/10 11:27:06;;;;;;;3.92;3.63;;;;;;;25.01;38.38;97080.16;5014816;28;20659;-75
2022/05/10 11:29:47;;;;;;;4.30;3.90;;;;;;;25.07;38.00;97086.19;5014430;28;20672;-76
2022/05/10 11:32:37;;;;;;;4.82;3.72;;;;;;;25.83;38.04;97086.59;5014796;28;20179;-75
2022/05/10 11:35:08;;;;;;;3.65;3.30;;;;;;;26.25;36.28;97082.28;5014327;28;20179;-75
2022/05/10 11:38:00;;;;;;;5.57;3.30;;;;;;;25.98;36.22;97080.72;5013819;28;20184;-74
2022/05/10 11:40:45;;;;;;;3.88;3.17;;;;;;;25.81;35.51;97073.47;5013550;28;20262;-73
2022/05/10 11:43:30;;;;;;;3.53;3.22;;;;;;;25.56;36.16;97072.38;5008015;28;20229;-75
2022/05/10 11:46:18;;;;;;;3.55;3.25;;;;;;;26.02;36.11;97070.94;4996370;28;20323;-73
2022/05/10 11:49:02;;;;;;;3.88;3.15;;;;;;;26.24;35.51;97067.28;5013925;28;20191;-74
2022/05/10 11:51:56;;;;;;;3.83;3.30;;;;;;;25.89;35.79;97064.63;5014029;28;20545;-74
2022/05/10 11:54:27;;;;;;;3.75;3.45;;;;;;;25.90;34.98;97058.13;5013712;28;20277;-74
2022/05/10 11:56:55;;;;;;;3.00;2.80;;;;;;;26.47;35.05;97057.88;5005644;28;20215;-74
2022/05/10 11:59:31;;;;;;;3.22;3.03;;;;;;;27.08;33.79;97053.81;5011224;28;20199;-74